createdAt,value
2018-10-17T00:02:41.860Z,5.33
2018-10-17T00:07:46.061Z,6.77
2018-10-17T00:12:50.246Z,4.97
2018-10-17T00:17:54.440Z,8.23
2018-10-17T00:22:58.758Z,5.67
2018-10-17T00:28:03.497Z,5.50
2018-10-17T00:33:07.769Z,4.33
2018-10-17T00:38:11.915Z,3.80
2018-10-17T00:43:16.172Z,3.53
2018-10-17T00:48:20.405Z,3.70
2018-10-17T00:53:24.631Z,4.27
2018-10-17T00:58:28.812Z,5.83
2018-10-17T01:03:33.163Z,7.30
2018-10-17T01:08:37.455Z,4.77
2018-10-17T01:13:41.633Z,5.03
2018-10-17T01:18:45.958Z,5.00
2018-10-17T01:23:50.227Z,4.73
2018-10-17T01:28:54.479Z,6.03
2018-10-17T01:33:58.689Z,6.90
2018-10-17T01:39:03.123Z,5.60
2018-10-17T01:44:07.632Z,6.40
2018-10-17T01:49:11.911Z,4.80
2018-10-17T01:54:16.065Z,5.13
2018-10-17T01:59:20.732Z,5.23
2018-10-17T02:04:24.917Z,7.60
2018-10-17T02:09:29.412Z,6.10
2018-10-17T02:14:33.624Z,5.60
2018-10-17T02:19:37.999Z,6.80
2018-10-17T02:24:42.183Z,5.43
2018-10-17T02:29:46.417Z,7.63
2018-10-17T02:34:55.827Z,6.30
2018-10-17T02:40:00.087Z,6.63
2018-10-17T02:45:04.533Z,4.97
2018-10-17T02:50:09.877Z,5.00
2018-10-17T02:55:14.109Z,5.30
2018-10-17T03:00:18.264Z,5.17
2018-10-17T03:05:22.621Z,6.83
2018-10-17T03:10:26.859Z,6.67
2018-10-17T03:15:31.065Z,4.80
2018-10-17T03:20:35.397Z,4.90
2018-10-17T03:25:40.023Z,8.17
2018-10-17T03:30:44.195Z,5.90
2018-10-17T03:35:48.482Z,9.10
2018-10-17T03:40:52.655Z,5.93
2018-10-17T03:45:56.852Z,5.70
2018-10-17T03:51:01.079Z,5.67
2018-10-17T03:56:05.473Z,4.87
2018-10-17T04:01:09.743Z,4.80
2018-10-17T04:06:14.029Z,6.90
2018-10-17T04:11:18.739Z,6.77
2018-10-17T04:16:22.909Z,5.47
2018-10-17T04:21:27.199Z,9.00
2018-10-17T04:26:31.723Z,7.13
2018-10-17T04:31:35.924Z,5.60
2018-10-17T04:36:40.141Z,5.67
2018-10-17T04:41:44.467Z,7.37
2018-10-17T04:46:48.636Z,8.83
2018-10-17T04:51:52.822Z,6.47
2018-10-17T04:56:57.319Z,5.80
2018-10-17T05:02:01.479Z,5.10
2018-10-17T05:07:05.819Z,5.40
2018-10-17T05:12:09.962Z,5.77
2018-10-17T05:17:14.376Z,6.57
2018-10-17T05:22:18.513Z,6.17
2018-10-17T05:27:22.743Z,7.10
2018-10-17T05:32:27.044Z,9.57
2018-10-17T05:37:31.501Z,6.27
2018-10-17T05:42:35.749Z,5.80
2018-10-17T05:47:40.432Z,5.53
2018-10-17T05:52:44.882Z,5.63
2018-10-17T05:57:49.197Z,5.63
2018-10-17T06:02:53.414Z,6.70
2018-10-17T06:07:57.759Z,8.20
2018-10-17T06:13:02.128Z,7.33
2018-10-17T06:18:06.251Z,7.60
2018-10-17T06:23:10.734Z,6.70
2018-10-17T06:28:15.049Z,8.83
2018-10-17T06:33:19.187Z,7.90
2018-10-17T06:38:23.853Z,7.07
2018-10-17T06:43:28.207Z,6.50
2018-10-17T06:48:32.412Z,6.93
2018-10-17T06:53:36.617Z,6.57
2018-10-17T06:58:41.053Z,9.27
2018-10-17T07:03:45.576Z,8.13
2018-10-17T07:08:50.230Z,6.90
2018-10-17T07:13:54.602Z,6.97
2018-10-17T07:18:58.805Z,7.60
2018-10-17T07:24:03.245Z,5.67
2018-10-17T07:29:07.441Z,6.90
2018-10-17T07:34:11.615Z,7.80
2018-10-17T07:39:16.126Z,5.70
2018-10-17T07:44:20.375Z,6.57
2018-10-17T07:49:24.609Z,7.33
2018-10-17T07:54:28.893Z,8.90
2018-10-17T07:59:33.414Z,9.43
2018-10-17T08:04:37.496Z,9.60
2018-10-17T08:09:41.697Z,7.13
2018-10-17T08:14:45.905Z,7.97
2018-10-17T08:19:50.541Z,6.37
2018-10-17T08:24:54.830Z,7.43
2018-10-17T08:29:59.279Z,6.87
2018-10-17T08:35:03.624Z,7.07
2018-10-17T08:40:07.854Z,8.27
2018-10-17T08:45:12.256Z,7.70
2018-10-17T08:50:16.491Z,7.23
2018-10-17T08:55:20.653Z,5.33
2018-10-17T09:00:25.187Z,9.23
2018-10-17T09:05:29.525Z,7.40
2018-10-17T09:10:33.915Z,8.50
2018-10-17T09:15:38.543Z,6.93
2018-10-17T09:20:42.899Z,10.97
2018-10-17T09:25:47.099Z,9.07
2018-10-17T09:30:51.242Z,11.03
2018-10-17T09:35:55.519Z,8.87
2018-10-17T09:40:59.888Z,8.07
2018-10-17T09:46:04.222Z,8.87
2018-10-17T09:51:08.511Z,15.37
2018-10-17T09:56:12.981Z,10.77
2018-10-17T10:01:22.430Z,13.73
2018-10-17T10:06:26.726Z,13.57
2018-10-17T10:11:31.149Z,15.33
2018-10-17T10:16:35.437Z,14.87
2018-10-17T10:21:39.692Z,15.07
2018-10-17T10:26:43.874Z,16.30
2018-10-17T10:31:48.596Z,12.37
2018-10-17T10:36:52.824Z,12.70
2018-10-17T10:41:57.157Z,14.47
2018-10-17T10:47:01.604Z,13.13
2018-10-17T10:52:06.031Z,14.63
2018-10-17T10:57:10.363Z,16.40
2018-10-17T11:02:14.649Z,14.33
2018-10-17T11:07:20.732Z,13.77
2018-10-17T11:12:24.897Z,14.60
2018-10-17T11:17:29.274Z,14.87
2018-10-17T11:22:33.517Z,14.17
2018-10-17T11:27:37.808Z,13.83
2018-10-17T11:32:42.138Z,13.87
2018-10-17T11:37:46.422Z,16.90
2018-10-17T11:42:50.573Z,14.73
2018-10-17T11:47:54.872Z,14.97
2018-10-17T11:52:59.156Z,15.40
2018-10-17T11:58:03.404Z,18.50
2018-10-17T12:03:07.653Z,14.87
2018-10-17T12:08:11.714Z,20.47
2018-10-17T12:13:15.878Z,19.13
2018-10-17T12:18:20.106Z,18.80
2018-10-17T12:23:24.284Z,15.90
2018-10-17T12:28:28.563Z,17.40
2018-10-17T12:33:33.254Z,19.47
2018-10-17T12:38:37.543Z,20.03
2018-10-17T12:43:41.724Z,15.57
2018-10-17T12:48:45.927Z,18.77
2018-10-17T12:53:50.216Z,16.57
2018-10-17T12:58:54.750Z,18.47
2018-10-17T13:03:59.001Z,21.53
2018-10-17T13:09:03.434Z,20.57
2018-10-17T13:14:07.621Z,24.13
2018-10-17T13:19:11.919Z,25.37
2018-10-17T13:24:16.106Z,29.77
2018-10-17T13:29:20.344Z,27.10
2018-10-17T13:34:24.608Z,31.53
2018-10-17T13:39:28.930Z,28.60
2018-10-17T13:44:33.296Z,33.83
2018-10-17T13:49:37.629Z,28.77
2018-10-17T13:54:41.922Z,30.57
2018-10-17T13:59:46.161Z,28.57
2018-10-17T14:04:50.581Z,26.13
2018-10-17T14:09:55.056Z,23.93
2018-10-17T14:14:59.275Z,25.50
2018-10-17T14:20:03.476Z,22.10
2018-10-17T14:25:07.754Z,23.13
2018-10-17T14:30:12.222Z,25.63
2018-10-17T14:35:16.399Z,23.63
2018-10-17T14:40:20.595Z,25.80
2018-10-17T14:45:24.835Z,23.90
2018-10-17T14:50:29.154Z,21.37
2018-10-17T14:55:33.492Z,20.27
2018-10-17T15:00:37.735Z,24.50
2018-10-17T15:05:41.973Z,24.70
2018-10-17T15:10:46.535Z,21.90
2018-10-17T15:15:50.620Z,22.33
2018-10-17T15:20:55.029Z,21.60
2018-10-17T15:25:58.932Z,20.23
2018-10-17T15:31:03.658Z,20.00
2018-10-17T15:36:08.101Z,19.77
2018-10-17T15:41:12.418Z,18.47
2018-10-17T15:46:16.600Z,21.63
2018-10-17T15:51:20.861Z,20.07
2018-10-17T15:56:25.272Z,17.03
2018-10-17T16:01:30.908Z,18.97
2018-10-17T16:06:35.976Z,18.53
2018-10-17T16:11:40.567Z,19.93
2018-10-17T16:16:44.689Z,20.80
2018-10-17T16:21:49.090Z,18.97
2018-10-17T16:26:53.358Z,21.63
2018-10-17T16:31:57.681Z,20.33
2018-10-17T16:37:01.812Z,22.57
2018-10-17T16:42:06.179Z,23.33
2018-10-17T16:47:10.649Z,22.13
2018-10-17T16:52:14.891Z,20.07
2018-10-17T16:57:19.277Z,21.33
2018-10-17T17:02:23.496Z,20.60
2018-10-17T17:07:27.815Z,20.23
2018-10-17T17:12:32.155Z,22.13
2018-10-17T17:17:36.429Z,21.70
2018-10-17T17:22:41.283Z,24.13
2018-10-17T17:27:45.617Z,26.07
2018-10-17T17:32:50.004Z,20.60
2018-10-17T17:37:54.347Z,21.47
2018-10-17T17:42:58.809Z,20.77
2018-10-17T17:48:03.073Z,19.33
2018-10-17T17:53:07.285Z,20.63
2018-10-17T17:58:11.541Z,22.30
2018-10-17T18:15:08.235Z,26.13
2018-10-17T18:20:12.567Z,26.20
2018-10-17T18:25:16.756Z,19.87
2018-10-17T18:30:21.178Z,19.07
2018-10-17T18:35:26.541Z,18.70
2018-10-17T18:40:32.024Z,21.47
2018-10-17T18:45:36.520Z,16.77
2018-10-17T18:50:41.125Z,25.03
2018-10-17T18:55:45.417Z,16.63
2018-10-17T19:00:50.774Z,18.17
2018-10-17T19:05:56.536Z,17.00
2018-10-17T19:11:01.386Z,19.43
2018-10-17T19:16:06.246Z,18.43
2018-10-17T19:21:11.279Z,21.03
2018-10-17T19:26:16.610Z,18.70
2018-10-17T19:31:22.466Z,17.43
2018-10-17T19:36:28.022Z,19.80
2018-10-17T19:41:32.267Z,17.03
2018-10-17T19:46:36.812Z,18.27
2018-10-17T19:51:43.688Z,17.20
2018-10-17T19:56:48.249Z,17.73
2018-10-17T20:01:52.727Z,18.27
2018-10-17T20:06:57.024Z,17.97
2018-10-17T20:12:01.630Z,19.03
2018-10-17T20:17:06.826Z,16.27
2018-10-17T20:22:11.940Z,18.43
2018-10-17T20:27:16.342Z,20.43
2018-10-17T20:32:20.502Z,19.00
2018-10-17T20:37:24.848Z,14.10
2018-10-17T20:42:29.323Z,15.70
2018-10-17T20:47:33.667Z,19.80
2018-10-17T20:52:38.250Z,19.17
2018-10-17T20:57:42.465Z,15.30
2018-10-17T21:02:46.728Z,17.47
2018-10-17T21:07:50.927Z,16.10
2018-10-17T21:12:55.230Z,18.47
2018-10-17T21:17:59.740Z,19.03
2018-10-17T21:23:03.998Z,18.33
2018-10-17T21:28:08.153Z,16.20
2018-10-17T21:33:12.439Z,16.67
2018-10-17T21:38:17.092Z,15.40
2018-10-17T21:43:21.234Z,15.27
2018-10-17T21:48:25.546Z,15.80
2018-10-17T21:53:29.714Z,16.63
2018-10-17T21:58:33.999Z,16.33
2018-10-17T22:03:38.306Z,17.30
2018-10-17T22:08:42.473Z,15.67
2018-10-17T22:13:46.709Z,17.30
2018-10-17T22:18:50.989Z,17.03
2018-10-17T22:23:55.196Z,17.87
2018-10-17T22:28:59.448Z,15.77
2018-10-17T22:34:03.693Z,16.73
2018-10-17T22:39:12.190Z,16.27
2018-10-17T22:44:16.535Z,17.53
2018-10-17T22:49:20.698Z,16.70
2018-10-17T22:54:24.892Z,16.27
2018-10-17T22:59:29.070Z,16.23
2018-10-17T23:04:33.349Z,16.63
2018-10-17T23:09:37.528Z,18.43
2018-10-17T23:14:41.757Z,15.33
2018-10-17T23:19:46.182Z,18.37
2018-10-17T23:24:50.547Z,15.50
2018-10-17T23:29:54.737Z,17.53
2018-10-17T23:34:59.011Z,17.27
2018-10-17T23:40:03.272Z,17.37
2018-10-17T23:45:07.589Z,16.20
2018-10-17T23:50:11.866Z,20.50
2018-10-17T23:55:16.195Z,18.20
